Etusivu
METAR-TAF:

METAR-TAF

Lentoasemat :

Deming, New Mexico, Yhdysvallat

Leveyspiiri: 32-15-44N, Pituuspiiri: 107-43-14W, korkeus merenpinnasta: 1315 m

Tämänhetkinen sää

Tämä raportti tehtiin 23 minuuttia sitten, kello 17.53 UTC
tyyntä
Lämpötila 33°C
Kosteus 12%
Ilmanpaine 1017 hPa
Näkyvyys: 16.1 km
selkeää

METAR: KDMN 181753Z AUTO 00000KT 10SM CLR 33/00 A3004 RMK AO2 SLP087 T03280000 10339 20161 58012

Aika: 12:16 (18:16 UTC)

Sääennuste

Tämä raportti tehtiin 43 minuuttia sitten, kello 17.33 UTC
Ennuste voimassa 18. päivästä klo 18 UTC - 19. päivään klo 18 UTC
Tuuli 7 kn etelästä/kaakosta
Näkyvyys: 10 km
selkeää
From 19. päivästä klo 0700 UTC
Tuuli 5 kn koillisesta
Näkyvyys: 10 km
Muutamia pilviä 25000 ft:n korkeudessa

TAF: KDMN 181733Z 1818/1918 16007KT P6SM SKC FM190700 05005KT P6SM FEW250

Säähavainnot ja -ennusteet yli 4000 lentoasemalta (METAR- ja TAF-raportit).

Käytössä olevat sääasemat on merkitty karttaan keltaisilla ja punaisilla pisteillä.

Aseta hiiri pisteen päälle nähdäksesi sääaseman nimen.

Klikkaa sitten nähdäksesi säähavainnot ja -ennusteet.

Kartan vaihtaminen: klikkaa mustalla rastilla varustettuja vihreitä pisteitä, niin voit zoomata sisään; viivalla varustettua vihreää pistettä, niin voit zoomata ulos tai vihreitä nuolia, niin pääset viereisille kartoille.


METAR-TAF: